Photometre #847[NE_1.6_Dp] OHP_OBSERVATOIRE AOT

File : 20200926_847.hum

26/09/2020,06:19:41,TEMP=7.4,BA=5.72,STAT.A,ExtBa=13.20
26/09/2020,06:23:17,TEMP=7.7,BA=5.68,STAT.A,ExtBa=13.20
26/09/2020,06:27:29,TEMP=7.8,BA=5.68,STAT.A,ExtBa=13.10
26/09/2020,06:32:30,TEMP=8.0,BA=5.72,STAT.A,ExtBa=13.10
26/09/2020,06:38:33,TEMP=8.3,BA=5.72,STAT.A,ExtBa=13.10
26/09/2020,06:46:00,TEMP=8.8,BA=5.68,STAT.A,ExtBa=13.20
26/09/2020,06:55:26,TEMP=9.3,BA=5.72,STAT.B,ExtBa=13.20
26/09/2020,07:04:24,TEMP=10.2,BA=5.68,STAT.A,ExtBa=12.60
26/09/2020,07:06:25,TEMP=10.4,BA=5.68,STAT.A,ExtBa=12.60
26/09/2020,07:10:46,TEMP=10.1,BA=5.72,STAT.A,ExtBa=12.70
26/09/2020,07:17:17,TEMP=10.2,BA=5.72,STAT.A,ExtBa=12.90
26/09/2020,07:24:48,TEMP=10.5,BA=5.72,STAT.C,ExtBa=13.00
26/09/2020,07:49:50,TEMP=12.4,BA=5.68,STAT.A,ExtBa=12.60
26/09/2020,07:51:50,TEMP=12.4,BA=5.68,STAT.A,ExtBa=12.70
26/09/2020,07:56:26,TEMP=12.0,BA=5.68,STAT.A,ExtBa=12.80
26/09/2020,08:11:55,TEMP=11.9,BA=5.68,STAT.A,ExtBa=13.20
26/09/2020,08:28:53,TEMP=12.5,BA=5.72,STAT.F,ExtBa=13.30
26/09/2020,08:53:28,TEMP=14.1,BA=5.64,STAT.D,ExtBa=12.70
26/09/2020,08:58:52,TEMP=13.5,BA=5.64,STAT.D,ExtBa=12.90
26/09/2020,09:13:52,TEMP=13.5,BA=5.68,STAT.D,ExtBa=13.20
26/09/2020,09:28:54,TEMP=14.0,BA=5.68,STAT.F,ExtBa=13.20
26/09/2020,09:57:39,TEMP=14.9,BA=5.64,STAT.D,ExtBa=12.90
26/09/2020,09:59:31,TEMP=15.2,BA=5.64,STAT.D,ExtBa=12.80
26/09/2020,10:13:52,TEMP=14.5,BA=5.68,STAT.D,ExtBa=13.20
26/09/2020,10:28:54,TEMP=14.6,BA=5.68,STAT.F,ExtBa=13.20
26/09/2020,10:52:47,TEMP=16.1,BA=5.60,STAT.D,ExtBa=12.70
26/09/2020,10:58:52,TEMP=15.3,BA=5.60,STAT.D,ExtBa=12.90
26/09/2020,11:13:52,TEMP=14.9,BA=5.68,STAT.D,ExtBa=13.20
26/09/2020,11:28:54,TEMP=15.5,BA=5.68,STAT.F,ExtBa=13.20
26/09/2020,11:53:36,TEMP=16.0,BA=5.60,STAT.D,ExtBa=12.70
26/09/2020,11:58:52,TEMP=15.2,BA=5.60,STAT.D,ExtBa=12.90
26/09/2020,12:13:52,TEMP=14.2,BA=5.68,STAT.D,ExtBa=13.20
26/09/2020,12:28:54,TEMP=13.3,BA=5.68,STAT.F,ExtBa=13.20
26/09/2020,12:43:52,TEMP=14.3,BA=5.68,STAT.D,ExtBa=12.90
26/09/2020,12:58:52,TEMP=15.6,BA=5.68,STAT.D,ExtBa=13.20
26/09/2020,13:13:52,TEMP=14.6,BA=5.68,STAT.D,ExtBa=13.20
26/09/2020,13:28:54,TEMP=14.3,BA=5.68,STAT.F,ExtBa=13.30
26/09/2020,13:53:03,TEMP=15.8,BA=5.60,STAT.D,ExtBa=12.70
26/09/2020,13:58:52,TEMP=15.1,BA=5.60,STAT.D,ExtBa=12.90
26/09/2020,14:13:52,TEMP=14.3,BA=5.68,STAT.D,ExtBa=13.20
26/09/2020,14:28:53,TEMP=14.0,BA=5.68,STAT.F,ExtBa=13.20
26/09/2020,14:52:51,TEMP=15.0,BA=5.60,STAT.A,ExtBa=12.70
26/09/2020,15:01:20,TEMP=14.1,BA=5.68,STAT.A,ExtBa=13.00
26/09/2020,15:13:51,TEMP=13.3,BA=5.68,STAT.A,ExtBa=13.10
26/09/2020,15:24:12,TEMP=13.0,BA=5.68,STAT.A,ExtBa=13.20
26/09/2020,15:32:58,TEMP=12.9,BA=5.68,STAT.C,ExtBa=13.20
26/09/2020,15:58:15,TEMP=13.2,BA=5.64,STAT.A,ExtBa=12.60
26/09/2020,16:00:22,TEMP=13.1,BA=5.68,STAT.A,ExtBa=12.70
26/09/2020,16:02:18,TEMP=13.0,BA=5.68,STAT.A,ExtBa=12.70
26/09/2020,16:04:24,TEMP=12.9,BA=5.68,STAT.A,ExtBa=12.70
26/09/2020,16:06:27,TEMP=12.8,BA=5.68,STAT.B,ExtBa=12.70
26/09/2020,16:15:56,TEMP=12.3,BA=5.60,STAT.A,ExtBa=12.60
26/09/2020,16:19:13,TEMP=11.9,BA=5.60,STAT.A,ExtBa=12.70
26/09/2020,16:25:16,TEMP=11.5,BA=5.64,STAT.A,ExtBa=12.90
26/09/2020,16:30:15,TEMP=11.4,BA=5.68,STAT.A,ExtBa=13.00
26/09/2020,16:40:55,TEMP=11.0,BA=5.68,STAT.A,ExtBa=13.10
26/09/2020,16:43:02,TEMP=11.4,BA=5.68,STAT.A,ExtBa=13.00